Terminal Aerodrome Forecast
Issued by NWS

Home | Current Version | Previous Version | Text Only | Print | Product List | Glossary On
Versions: 1 2 3 4 5 6 7 8 9 10 11 12 13 14 15 16 17 18 19 20 21 22 23
000
FTUS46 KSEW 050520
TAFHQM
TAF
KHQM 050520Z 0506/0606 30005KT 6SM HZ FEW035
     FM051000 33006KT P6SM BKN020 BKN050
     FM051600 33006KT P6SM SCT030 BKN050
     FM052100 33008KT P6SM SCT050=

USA.gov is the U.S. government's official web portal to all federal, state and local government web resources and services.